Weather at Quion Hill Airport

Public forecast

Using degrees Celsius for public forecast. Weather courtesy of forecast.io.

Closest aviation weather report (METAR) to Quion Hill Airport

Closest report is Bauerfield International Airport, 11.8 nm (21.9 km) SW. Retrieved 2020/10/01 02:00 UTC (50 minutes ago):

NVVV 010200Z 13010KT 9999 BKN020 OVC040 25/22 Q1014 MK REDZ

Closest aviation forecast (TAF) to Quion Hill Airport

Closest forecast is Bauerfield International Airport, 11.8 nm (21.9 km) SW. Retrieved 2020-10-01 00:24 UTC (2 hours ago):

TAF TAF NVVV 302220Z 0100/0124 13014KT 9999 BKN020 INTER 0100/0106 9000 -SHRA BKN018